ACA842 CYYZ-EDDF
Flight info
| Callsign | ACA842 |
|---|---|
| Flight time | N/A |
| Altitude | 35000 |
| Route | VERDO7 LORKA Q907 MIILS N513A ALLRY/M083F360 DCT 51N050W 53N040W 55N030W 56N020W DCT PIKIL DCT SOVED/N0471F370 DCT KUGUR DCT BELOX L603 DOLAS DCT NAVPI DCT NOLRU DCT DIXAT DIXAT1A |
| Aircraft | B77W/H-SDE1E2E3FGHIJ2J3J4J5M1RWXY/LB1D1 |
Departure
| Time | 2026-05-04 04:55 |
|---|---|
| Airport | Toronto Pearson International Airport (CYYZ) |
Arrival
| Time | N/A |
|---|---|
| Airport | Frankfurt Main Airport (EDDF) |
| Time | Latitude | Longitude | Altitude | Speed | Heading |
|---|---|---|---|---|---|
| 2026-05-04 04:07 | 43.67584 | -79.61094 | 566 ft | 0 kts | 346° |
| 2026-05-04 04:38 | 43.67564 | -79.61088 | 575 ft | 4 kts | 346° |
| 2026-05-04 04:38 | 43.67538 | -79.61079 | 575 ft | 4 kts | 346° |
| 2026-05-04 04:38 | 43.67516 | -79.61071 | 570 ft | 4 kts | 334° |
| 2026-05-04 04:39 | 43.67500 | -79.61056 | 574 ft | 4 kts | 295° |
| 2026-05-04 04:39 | 43.67497 | -79.61032 | 573 ft | 4 kts | 257° |
| 2026-05-04 04:39 | 43.67505 | -79.60997 | 573 ft | 4 kts | 250° |
| 2026-05-04 04:39 | 43.67509 | -79.60980 | 575 ft | 1 kts | 251° |
| 2026-05-04 04:40 | 43.67509 | -79.60979 | 575 ft | 0 kts | 251° |
| 2026-05-04 04:43 | 43.67507 | -79.60986 | 571 ft | 2 kts | 251° |
| 2026-05-04 04:43 | 43.67498 | -79.61026 | 575 ft | 6 kts | 251° |
| 2026-05-04 04:44 | 43.67484 | -79.61100 | 574 ft | 10 kts | 260° |
| 2026-05-04 04:44 | 43.67480 | -79.61209 | 570 ft | 12 kts | 263° |
| 2026-05-04 04:44 | 43.67426 | -79.61287 | 575 ft | 11 kts | 205° |
| 2026-05-04 04:44 | 43.67381 | -79.61361 | 574 ft | 11 kts | 270° |
| 2026-05-04 04:45 | 43.67422 | -79.61449 | 576 ft | 11 kts | 313° |
| 2026-05-04 04:45 | 43.67477 | -79.61527 | 573 ft | 11 kts | 316° |
| 2026-05-04 04:45 | 43.67515 | -79.61576 | 574 ft | 11 kts | 318° |
| 2026-05-04 04:47 | 43.67876 | -79.62039 | 576 ft | 11 kts | 324° |
| 2026-05-04 04:47 | 43.67924 | -79.62069 | 571 ft | 11 kts | 339° |
| 2026-05-04 04:47 | 43.67989 | -79.62124 | 569 ft | 11 kts | 320° |
| 2026-05-04 04:47 | 43.68046 | -79.62197 | 575 ft | 11 kts | 317° |
| 2026-05-04 04:48 | 43.68103 | -79.62271 | 573 ft | 11 kts | 316° |
| 2026-05-04 04:49 | 43.68334 | -79.62559 | 574 ft | 11 kts | 317° |
| 2026-05-04 04:49 | 43.68390 | -79.62633 | 573 ft | 11 kts | 316° |
| 2026-05-04 04:49 | 43.68446 | -79.62707 | 573 ft | 11 kts | 317° |
| 2026-05-04 04:49 | 43.68504 | -79.62781 | 572 ft | 11 kts | 317° |
| 2026-05-04 04:50 | 43.68561 | -79.62854 | 573 ft | 11 kts | 317° |
| 2026-05-04 04:50 | 43.68617 | -79.62928 | 571 ft | 11 kts | 316° |
| 2026-05-04 04:50 | 43.68672 | -79.63000 | 573 ft | 11 kts | 316° |
| 2026-05-04 04:50 | 43.68730 | -79.63076 | 571 ft | 11 kts | 316° |
| 2026-05-04 04:51 | 43.68786 | -79.63150 | 571 ft | 11 kts | 316° |
| 2026-05-04 04:51 | 43.68844 | -79.63223 | 573 ft | 11 kts | 317° |
| 2026-05-04 04:51 | 43.68900 | -79.63297 | 571 ft | 11 kts | 316° |
| 2026-05-04 04:51 | 43.68957 | -79.63371 | 575 ft | 11 kts | 316° |
| 2026-05-04 04:52 | 43.69012 | -79.63444 | 572 ft | 11 kts | 316° |
| 2026-05-04 04:52 | 43.69063 | -79.63513 | 574 ft | 9 kts | 316° |
| 2026-05-04 04:52 | 43.69122 | -79.63511 | 573 ft | 9 kts | 28° |
| 2026-05-04 04:52 | 43.69172 | -79.63458 | 577 ft | 9 kts | 38° |
| 2026-05-04 04:53 | 43.69230 | -79.63428 | 572 ft | 9 kts | 7° |
| 2026-05-04 04:53 | 43.69296 | -79.63419 | 575 ft | 10 kts | 10° |
| 2026-05-04 04:53 | 43.69357 | -79.63377 | 577 ft | 10 kts | 34° |
| 2026-05-04 04:53 | 43.69415 | -79.63326 | 575 ft | 10 kts | 27° |
| 2026-05-04 04:54 | 43.69478 | -79.63337 | 575 ft | 9 kts | 321° |
| 2026-05-04 04:54 | 43.69478 | -79.63417 | 575 ft | 9 kts | 230° |
| 2026-05-04 04:54 | 43.69401 | -79.63530 | 573 ft | 30 kts | 226° |
| 2026-05-04 04:54 | 43.69047 | -79.64043 | 577 ft | 122 kts | 226° |
| 2026-05-04 04:55 | 43.68242 | -79.65198 | 700 ft | 199 kts | 226° |
| 2026-05-04 04:55 | 43.67256 | -79.66625 | 1873 ft | 199 kts | 233° |
| 2026-05-04 04:55 | 43.66412 | -79.68226 | 3181 ft | 215 kts | 239° |
| 2026-05-04 04:55 | 43.65575 | -79.70042 | 3691 ft | 232 kts | 242° |
| 2026-05-04 04:56 | 43.64693 | -79.71970 | 4233 ft | 245 kts | 234° |
| 2026-05-04 04:56 | 43.63269 | -79.73355 | 4763 ft | 265 kts | 198° |
| 2026-05-04 04:56 | 43.61384 | -79.73374 | 5461 ft | 280 kts | 165° |
| 2026-05-04 04:56 | 43.59568 | -79.72360 | 6150 ft | 284 kts | 164° |
| 2026-05-04 04:57 | 43.57631 | -79.71737 | 6732 ft | 287 kts | 168° |
| 2026-05-04 04:57 | 43.55818 | -79.70553 | 7381 ft | 295 kts | 139° |
| 2026-05-04 04:57 | 43.54546 | -79.68353 | 8213 ft | 295 kts | 115° |
| 2026-05-04 04:57 | 43.53986 | -79.65666 | 8983 ft | 291 kts | 91° |
| 2026-05-04 04:58 | 43.53926 | -79.62883 | 9638 ft | 298 kts | 87° |
| 2026-05-04 04:58 | 43.53909 | -79.60018 | 10347 ft | 300 kts | 88° |
| 2026-05-04 04:58 | 43.53834 | -79.57065 | 10700 ft | 320 kts | 90° |
| 2026-05-04 04:58 | 43.53717 | -79.53899 | 10869 ft | 340 kts | 90° |
| 2026-05-04 04:59 | 43.53592 | -79.50557 | 10996 ft | 356 kts | 90° |
| 2026-05-04 04:59 | 43.53470 | -79.47076 | 11161 ft | 373 kts | 89° |
| 2026-05-04 04:59 | 43.53526 | -79.43457 | 11763 ft | 382 kts | 83° |
| 2026-05-04 04:59 | 43.53906 | -79.39839 | 12385 ft | 381 kts | 73° |
| 2026-05-04 05:00 | 43.54962 | -79.36481 | 12947 ft | 384 kts | 57° |
| 2026-05-04 05:00 | 43.56395 | -79.33374 | 13637 ft | 384 kts | 54° |
| 2026-05-04 05:00 | 43.59231 | -79.27046 | 14383 ft | 393 kts | 59° |
| 2026-05-04 05:01 | 43.60472 | -79.23666 | 14808 ft | 396 kts | 62° |
| 2026-05-04 05:01 | 43.61661 | -79.20229 | 15206 ft | 401 kts | 62° |
| 2026-05-04 05:01 | 43.62865 | -79.16719 | 15925 ft | 406 kts | 62° |
| 2026-05-04 05:01 | 43.64088 | -79.13197 | 16781 ft | 407 kts | 62° |
| 2026-05-04 05:02 | 43.65326 | -79.09689 | 17661 ft | 409 kts | 62° |
| 2026-05-04 05:02 | 43.66530 | -79.06319 | 18222 ft | 417 kts | 61° |
| 2026-05-04 05:02 | 43.67832 | -79.02704 | 18782 ft | 424 kts | 61° |
| 2026-05-04 05:02 | 43.69154 | -78.99038 | 19419 ft | 427 kts | 62° |
| 2026-05-04 05:03 | 43.70483 | -78.95346 | 20098 ft | 431 kts | 62° |